sensor_id;sensor_type;location;lat;lon;timestamp;temperature;humidity
18934;DHT22;9599;53.706;10.384;2024-02-26T00:02:25;4.30;99.90
18934;DHT22;9599;53.706;10.384;2024-02-26T00:04:53;4.30;99.90
18934;DHT22;9599;53.706;10.384;2024-02-26T00:07:22;4.20;99.90
18934;DHT22;9599;53.706;10.384;2024-02-26T00:09:51;4.10;99.90
18934;DHT22;9599;53.706;10.384;2024-02-26T00:12:18;4.10;99.90
18934;DHT22;9599;53.706;10.384;2024-02-26T00:14:47;4.10;99.90
18934;DHT22;9599;53.706;10.384;2024-02-26T00:17:16;4.00;99.90
18934;DHT22;9599;53.706;10.384;2024-02-26T00:19:44;4.00;99.90
18934;DHT22;9599;53.706;10.384;2024-02-26T00:22:12;4.00;99.90
18934;DHT22;9599;53.706;10.384;2024-02-26T00:24:42;4.00;99.90
18934;DHT22;9599;53.706;10.384;2024-02-26T00:27:10;3.90;99.90
18934;DHT22;9599;53.706;10.384;2024-02-26T00:29:38;3.90;99.90
18934;DHT22;9599;53.706;10.384;2024-02-26T00:32:06;3.90;99.90
18934;DHT22;9599;53.706;10.384;2024-02-26T00:34:35;3.90;99.90
18934;DHT22;9599;53.706;10.384;2024-02-26T00:37:03;3.90;99.90
18934;DHT22;9599;53.706;10.384;2024-02-26T00:39:31;3.90;99.90
18934;DHT22;9599;53.706;10.384;2024-02-26T00:42:02;3.80;99.90
18934;DHT22;9599;53.706;10.384;2024-02-26T00:44:30;3.80;99.90
18934;DHT22;9599;53.706;10.384;2024-02-26T00:46:58;3.80;99.90
18934;DHT22;9599;53.706;10.384;2024-02-26T00:49:27;3.80;99.90
18934;DHT22;9599;53.706;10.384;2024-02-26T00:51:55;3.70;99.90
18934;DHT22;9599;53.706;10.384;2024-02-26T00:54:23;3.70;99.90
18934;DHT22;9599;53.706;10.384;2024-02-26T00:56:51;3.70;99.90
18934;DHT22;9599;53.706;10.384;2024-02-26T00:59:21;3.70;99.90
18934;DHT22;9599;53.706;10.384;2024-02-26T01:01:49;3.70;99.90
18934;DHT22;9599;53.706;10.384;2024-02-26T01:04:17;3.70;99.90
18934;DHT22;9599;53.706;10.384;2024-02-26T01:06:45;3.60;99.90
18934;DHT22;9599;53.706;10.384;2024-02-26T01:09:13;3.50;99.90
18934;DHT22;9599;53.706;10.384;2024-02-26T01:11:41;3.40;99.90
18934;DHT22;9599;53.706;10.384;2024-02-26T01:14:09;3.40;99.90
18934;DHT22;9599;53.706;10.384;2024-02-26T01:16:41;3.40;99.90
18934;DHT22;9599;53.706;10.384;2024-02-26T01:19:09;3.40;99.90
18934;DHT22;9599;53.706;10.384;2024-02-26T01:21:37;3.40;99.90
18934;DHT22;9599;53.706;10.384;2024-02-26T01:24:05;3.40;99.90
18934;DHT22;9599;53.706;10.384;2024-02-26T01:26:34;3.30;99.90
18934;DHT22;9599;53.706;10.384;2024-02-26T01:29:03;3.30;99.90
18934;DHT22;9599;53.706;10.384;2024-02-26T01:31:31;3.20;99.90
18934;DHT22;9599;53.706;10.384;2024-02-26T01:34:00;3.10;99.90
18934;DHT22;9599;53.706;10.384;2024-02-26T01:36:29;3.00;99.90
18934;DHT22;9599;53.706;10.384;2024-02-26T01:38:57;3.10;99.90
18934;DHT22;9599;53.706;10.384;2024-02-26T01:41:25;3.00;99.90
18934;DHT22;9599;53.706;10.384;2024-02-26T01:43:53;3.00;99.90
18934;DHT22;9599;53.706;10.384;2024-02-26T01:46:21;3.00;99.90
18934;DHT22;9599;53.706;10.384;2024-02-26T01:48:49;2.90;99.90
18934;DHT22;9599;53.706;10.384;2024-02-26T01:51:19;2.90;99.90
18934;DHT22;9599;53.706;10.384;2024-02-26T01:53:47;2.90;99.90
18934;DHT22;9599;53.706;10.384;2024-02-26T01:56:16;2.80;99.90
18934;DHT22;9599;53.706;10.384;2024-02-26T01:58:45;2.70;99.90
18934;DHT22;9599;53.706;10.384;2024-02-26T02:01:16;2.70;99.90
18934;DHT22;9599;53.706;10.384;2024-02-26T02:03:46;2.70;99.90
18934;DHT22;9599;53.706;10.384;2024-02-26T02:06:15;2.70;99.90
18934;DHT22;9599;53.706;10.384;2024-02-26T02:08:45;2.60;99.90
18934;DHT22;9599;53.706;10.384;2024-02-26T02:11:14;2.60;99.90
18934;DHT22;9599;53.706;10.384;2024-02-26T02:13:43;2.50;99.90
18934;DHT22;9599;53.706;10.384;2024-02-26T02:16:11;2.50;99.90
18934;DHT22;9599;53.706;10.384;2024-02-26T02:18:39;2.60;99.90
18934;DHT22;9599;53.706;10.384;2024-02-26T02:21:08;2.50;99.90
18934;DHT22;9599;53.706;10.384;2024-02-26T02:23:36;2.60;99.90
18934;DHT22;9599;53.706;10.384;2024-02-26T02:26:05;2.60;99.90
18934;DHT22;9599;53.706;10.384;2024-02-26T02:28:33;2.60;99.90
18934;DHT22;9599;53.706;10.384;2024-02-26T02:31:01;2.50;99.90
18934;DHT22;9599;53.706;10.384;2024-02-26T02:33:30;2.40;99.90
18934;DHT22;9599;53.706;10.384;2024-02-26T02:35:59;2.40;99.90
18934;DHT22;9599;53.706;10.384;2024-02-26T02:38:28;2.40;99.90
18934;DHT22;9599;53.706;10.384;2024-02-26T02:40:57;2.40;99.90
18934;DHT22;9599;53.706;10.384;2024-02-26T02:43:25;2.30;99.90
18934;DHT22;9599;53.706;10.384;2024-02-26T02:45:53;2.20;99.90
18934;DHT22;9599;53.706;10.384;2024-02-26T02:48:21;2.10;99.90
18934;DHT22;9599;53.706;10.384;2024-02-26T02:50:49;2.10;99.90
18934;DHT22;9599;53.706;10.384;2024-02-26T02:53:17;2.00;99.90
18934;DHT22;9599;53.706;10.384;2024-02-26T02:55:47;2.00;99.90
18934;DHT22;9599;53.706;10.384;2024-02-26T02:58:15;2.00;99.90
18934;DHT22;9599;53.706;10.384;2024-02-26T03:00:43;2.00;99.90
18934;DHT22;9599;53.706;10.384;2024-02-26T03:03:11;2.00;99.90
18934;DHT22;9599;53.706;10.384;2024-02-26T03:05:39;2.00;99.90
18934;DHT22;9599;53.706;10.384;2024-02-26T03:08:08;2.00;99.90
18934;DHT22;9599;53.706;10.384;2024-02-26T03:10:36;2.00;99.90
18934;DHT22;9599;53.706;10.384;2024-02-26T03:13:06;1.90;99.90
18934;DHT22;9599;53.706;10.384;2024-02-26T03:15:34;1.90;99.90
18934;DHT22;9599;53.706;10.384;2024-02-26T03:18:02;1.80;99.90
18934;DHT22;9599;53.706;10.384;2024-02-26T03:20:30;1.80;99.90
18934;DHT22;9599;53.706;10.384;2024-02-26T03:22:59;1.80;99.90
18934;DHT22;9599;53.706;10.384;2024-02-26T03:25:27;1.80;99.90
18934;DHT22;9599;53.706;10.384;2024-02-26T03:27:55;1.80;99.90
18934;DHT22;9599;53.706;10.384;2024-02-26T03:30:24;1.80;99.90
18934;DHT22;9599;53.706;10.384;2024-02-26T03:32:52;1.80;99.90
18934;DHT22;9599;53.706;10.384;2024-02-26T03:35:20;1.70;99.90
18934;DHT22;9599;53.706;10.384;2024-02-26T03:37:48;1.70;99.90
18934;DHT22;9599;53.706;10.384;2024-02-26T03:40:18;1.70;99.90
18934;DHT22;9599;53.706;10.384;2024-02-26T03:42:46;1.70;99.90
18934;DHT22;9599;53.706;10.384;2024-02-26T03:45:14;1.80;99.90
18934;DHT22;9599;53.706;10.384;2024-02-26T03:47:44;1.80;99.90
18934;DHT22;9599;53.706;10.384;2024-02-26T03:50:12;1.80;99.90
18934;DHT22;9599;53.706;10.384;2024-02-26T03:52:40;1.70;99.90
18934;DHT22;9599;53.706;10.384;2024-02-26T03:55:08;1.80;99.90
18934;DHT22;9599;53.706;10.384;2024-02-26T03:57:37;1.70;99.90
18934;DHT22;9599;53.706;10.384;2024-02-26T04:00:06;1.70;99.90
18934;DHT22;9599;53.706;10.384;2024-02-26T04:02:38;1.80;99.90
18934;DHT22;9599;53.706;10.384;2024-02-26T04:05:10;1.80;99.90
18934;DHT22;9599;53.706;10.384;2024-02-26T04:07:39;1.70;99.90
18934;DHT22;9599;53.706;10.384;2024-02-26T04:10:09;1.70;99.90
18934;DHT22;9599;53.706;10.384;2024-02-26T04:12:38;1.70;99.90
18934;DHT22;9599;53.706;10.384;2024-02-26T04:15:08;1.60;99.90
18934;DHT22;9599;53.706;10.384;2024-02-26T04:17:37;1.50;99.90
18934;DHT22;9599;53.706;10.384;2024-02-26T04:20:07;1.40;99.90
18934;DHT22;9599;53.706;10.384;2024-02-26T04:22:37;1.40;99.90
18934;DHT22;9599;53.706;10.384;2024-02-26T04:25:06;1.30;99.90
18934;DHT22;9599;53.706;10.384;2024-02-26T04:27:34;1.40;99.90
18934;DHT22;9599;53.706;10.384;2024-02-26T04:30:02;1.40;99.90
18934;DHT22;9599;53.706;10.384;2024-02-26T04:32:31;1.40;99.90
18934;DHT22;9599;53.706;10.384;2024-02-26T04:34:59;1.40;99.90
18934;DHT22;9599;53.706;10.384;2024-02-26T04:37:27;1.30;99.90
18934;DHT22;9599;53.706;10.384;2024-02-26T04:39:59;1.30;99.90
18934;DHT22;9599;53.706;10.384;2024-02-26T04:42:28;1.30;99.90
18934;DHT22;9599;53.706;10.384;2024-02-26T04:44:56;1.30;99.90
18934;DHT22;9599;53.706;10.384;2024-02-26T04:47:24;1.30;99.90
18934;DHT22;9599;53.706;10.384;2024-02-26T04:49:52;1.20;99.90
18934;DHT22;9599;53.706;10.384;2024-02-26T04:52:21;1.20;99.90
18934;DHT22;9599;53.706;10.384;2024-02-26T04:54:49;1.20;99.90
18934;DHT22;9599;53.706;10.384;2024-02-26T04:57:18;1.20;99.90
18934;DHT22;9599;53.706;10.384;2024-02-26T04:59:46;1.20;99.90
18934;DHT22;9599;53.706;10.384;2024-02-26T05:02:15;1.20;99.90
18934;DHT22;9599;53.706;10.384;2024-02-26T05:04:43;1.20;99.90
18934;DHT22;9599;53.706;10.384;2024-02-26T05:07:11;1.20;99.90
18934;DHT22;9599;53.706;10.384;2024-02-26T05:09:40;1.20;99.90
18934;DHT22;9599;53.706;10.384;2024-02-26T05:12:08;1.20;99.90
18934;DHT22;9599;53.706;10.384;2024-02-26T05:14:38;1.20;99.90
18934;DHT22;9599;53.706;10.384;2024-02-26T05:17:07;1.20;99.90
18934;DHT22;9599;53.706;10.384;2024-02-26T05:19:35;1.20;99.90
18934;DHT22;9599;53.706;10.384;2024-02-26T05:22:03;1.20;99.90
18934;DHT22;9599;53.706;10.384;2024-02-26T05:24:31;1.20;99.90
18934;DHT22;9599;53.706;10.384;2024-02-26T05:26:59;1.20;99.90
18934;DHT22;9599;53.706;10.384;2024-02-26T05:29:27;1.30;99.90
18934;DHT22;9599;53.706;10.384;2024-02-26T05:31:57;1.20;99.90
18934;DHT22;9599;53.706;10.384;2024-02-26T05:34:25;1.20;99.90
18934;DHT22;9599;53.706;10.384;2024-02-26T05:36:53;1.10;99.90
18934;DHT22;9599;53.706;10.384;2024-02-26T05:39:21;1.10;99.90
18934;DHT22;9599;53.706;10.384;2024-02-26T05:41:48;1.10;99.90
18934;DHT22;9599;53.706;10.384;2024-02-26T05:44:17;1.00;99.90
18934;DHT22;9599;53.706;10.384;2024-02-26T05:46:45;1.00;99.90
18934;DHT22;9599;53.706;10.384;2024-02-26T05:49:14;1.00;99.90
18934;DHT22;9599;53.706;10.384;2024-02-26T05:51:42;1.00;99.90
18934;DHT22;9599;53.706;10.384;2024-02-26T05:54:10;1.00;99.90
18934;DHT22;9599;53.706;10.384;2024-02-26T05:56:39;1.00;99.90
18934;DHT22;9599;53.706;10.384;2024-02-26T05:59:07;1.10;99.90
18934;DHT22;9599;53.706;10.384;2024-02-26T06:01:35;1.10;99.90
18934;DHT22;9599;53.706;10.384;2024-02-26T06:04:03;1.20;99.90
18934;DHT22;9599;53.706;10.384;2024-02-26T06:06:33;1.20;99.90
18934;DHT22;9599;53.706;10.384;2024-02-26T06:09:01;1.20;99.90
18934;DHT22;9599;53.706;10.384;2024-02-26T06:11:32;1.30;99.90
18934;DHT22;9599;53.706;10.384;2024-02-26T06:14:00;1.30;99.90
18934;DHT22;9599;53.706;10.384;2024-02-26T06:16:30;1.20;99.90
18934;DHT22;9599;53.706;10.384;2024-02-26T06:18:58;1.20;99.90
18934;DHT22;9599;53.706;10.384;2024-02-26T06:21:28;1.30;99.90
18934;DHT22;9599;53.706;10.384;2024-02-26T06:23:57;1.30;99.90
18934;DHT22;9599;53.706;10.384;2024-02-26T06:26:26;1.20;99.90
18934;DHT22;9599;53.706;10.384;2024-02-26T06:28:56;1.20;99.90
18934;DHT22;9599;53.706;10.384;2024-02-26T06:31:24;1.30;99.90
18934;DHT22;9599;53.706;10.384;2024-02-26T06:33:54;1.30;99.90
18934;DHT22;9599;53.706;10.384;2024-02-26T06:36:23;1.30;99.90
18934;DHT22;9599;53.706;10.384;2024-02-26T06:38:51;1.30;99.90
18934;DHT22;9599;53.706;10.384;2024-02-26T06:41:22;1.40;99.90
18934;DHT22;9599;53.706;10.384;2024-02-26T06:43:54;1.40;99.90
18934;DHT22;9599;53.706;10.384;2024-02-26T06:46:22;1.40;99.90
18934;DHT22;9599;53.706;10.384;2024-02-26T06:48:51;1.50;99.90
18934;DHT22;9599;53.706;10.384;2024-02-26T06:51:21;1.50;99.90
18934;DHT22;9599;53.706;10.384;2024-02-26T06:53:50;1.50;99.90
18934;DHT22;9599;53.706;10.384;2024-02-26T06:56:19;1.50;99.90
18934;DHT22;9599;53.706;10.384;2024-02-26T06:58:48;1.50;99.90
18934;DHT22;9599;53.706;10.384;2024-02-26T07:01:17;1.60;99.90
18934;DHT22;9599;53.706;10.384;2024-02-26T07:03:45;1.60;99.90
18934;DHT22;9599;53.706;10.384;2024-02-26T07:06:13;1.70;99.90
18934;DHT22;9599;53.706;10.384;2024-02-26T07:08:42;1.80;99.90
18934;DHT22;9599;53.706;10.384;2024-02-26T07:11:10;1.80;99.90
18934;DHT22;9599;53.706;10.384;2024-02-26T07:13:38;1.90;99.90
18934;DHT22;9599;53.706;10.384;2024-02-26T07:16:10;1.90;99.90
18934;DHT22;9599;53.706;10.384;2024-02-26T07:18:39;2.00;99.90
18934;DHT22;9599;53.706;10.384;2024-02-26T07:21:07;2.00;99.90
18934;DHT22;9599;53.706;10.384;2024-02-26T07:23:36;2.00;99.90
18934;DHT22;9599;53.706;10.384;2024-02-26T07:26:04;2.00;99.90
18934;DHT22;9599;53.706;10.384;2024-02-26T07:28:32;2.00;99.90
18934;DHT22;9599;53.706;10.384;2024-02-26T07:31:00;2.00;99.90
18934;DHT22;9599;53.706;10.384;2024-02-26T07:33:30;2.00;99.90
18934;DHT22;9599;53.706;10.384;2024-02-26T07:35:58;2.00;99.90
18934;DHT22;9599;53.706;10.384;2024-02-26T07:38:26;2.00;99.90
18934;DHT22;9599;53.706;10.384;2024-02-26T07:41:08;2.10;99.90
18934;DHT22;9599;53.706;10.384;2024-02-26T07:43:37;2.00;99.90
18934;DHT22;9599;53.706;10.384;2024-02-26T07:46:05;2.10;99.90
18934;DHT22;9599;53.706;10.384;2024-02-26T07:48:34;2.10;99.90
18934;DHT22;9599;53.706;10.384;2024-02-26T07:51:03;2.10;99.90
18934;DHT22;9599;53.706;10.384;2024-02-26T07:53:32;2.10;99.90
18934;DHT22;9599;53.706;10.384;2024-02-26T07:56:00;2.30;99.90
18934;DHT22;9599;53.706;10.384;2024-02-26T07:58:28;2.20;99.90
18934;DHT22;9599;53.706;10.384;2024-02-26T08:00:55;2.20;99.90
18934;DHT22;9599;53.706;10.384;2024-02-26T08:03:23;2.30;99.90
18934;DHT22;9599;53.706;10.384;2024-02-26T08:05:53;2.20;99.90
18934;DHT22;9599;53.706;10.384;2024-02-26T08:08:22;2.30;99.90
18934;DHT22;9599;53.706;10.384;2024-02-26T08:10:50;2.40;99.90
18934;DHT22;9599;53.706;10.384;2024-02-26T08:13:18;2.50;99.90
18934;DHT22;9599;53.706;10.384;2024-02-26T08:15:46;2.60;99.90
18934;DHT22;9599;53.706;10.384;2024-02-26T08:18:14;2.70;99.90
18934;DHT22;9599;53.706;10.384;2024-02-26T08:20:43;2.80;99.90
18934;DHT22;9599;53.706;10.384;2024-02-26T08:23:12;2.90;99.90
18934;DHT22;9599;53.706;10.384;2024-02-26T08:25:40;2.90;99.90
18934;DHT22;9599;53.706;10.384;2024-02-26T08:28:08;3.00;99.90
18934;DHT22;9599;53.706;10.384;2024-02-26T08:30:38;3.00;99.90
18934;DHT22;9599;53.706;10.384;2024-02-26T08:33:06;3.00;99.90
18934;DHT22;9599;53.706;10.384;2024-02-26T08:35:34;3.10;99.90
18934;DHT22;9599;53.706;10.384;2024-02-26T08:38:02;3.10;99.90
18934;DHT22;9599;53.706;10.384;2024-02-26T08:40:31;3.20;99.90
18934;DHT22;9599;53.706;10.384;2024-02-26T08:42:59;3.20;99.90
18934;DHT22;9599;53.706;10.384;2024-02-26T08:45:28;3.20;99.90
18934;DHT22;9599;53.706;10.384;2024-02-26T08:47:56;3.30;99.90
18934;DHT22;9599;53.706;10.384;2024-02-26T08:50:26;3.30;99.90
18934;DHT22;9599;53.706;10.384;2024-02-26T08:52:54;3.40;99.90
18934;DHT22;9599;53.706;10.384;2024-02-26T08:55:22;3.40;99.90
18934;DHT22;9599;53.706;10.384;2024-02-26T08:57:52;3.50;99.90
18934;DHT22;9599;53.706;10.384;2024-02-26T09:00:20;3.60;99.90
18934;DHT22;9599;53.706;10.384;2024-02-26T09:02:48;3.60;99.90
18934;DHT22;9599;53.706;10.384;2024-02-26T09:05:17;3.60;99.90
18934;DHT22;9599;53.706;10.384;2024-02-26T09:07:45;3.60;99.90
18934;DHT22;9599;53.706;10.384;2024-02-26T09:10:13;3.60;99.90
18934;DHT22;9599;53.706;10.384;2024-02-26T09:12:41;3.60;99.90
18934;DHT22;9599;53.706;10.384;2024-02-26T09:15:11;3.70;99.90
18934;DHT22;9599;53.706;10.384;2024-02-26T09:17:39;3.80;99.90
18934;DHT22;9599;53.706;10.384;2024-02-26T09:20:08;3.90;99.90
18934;DHT22;9599;53.706;10.384;2024-02-26T09:22:37;4.10;99.90
18934;DHT22;9599;53.706;10.384;2024-02-26T09:25:06;4.20;99.90
18934;DHT22;9599;53.706;10.384;2024-02-26T09:27:34;4.40;99.90
18934;DHT22;9599;53.706;10.384;2024-02-26T09:30:05;4.40;99.90
18934;DHT22;9599;53.706;10.384;2024-02-26T09:32:35;4.40;99.90
18934;DHT22;9599;53.706;10.384;2024-02-26T09:35:04;4.50;99.90
18934;DHT22;9599;53.706;10.384;2024-02-26T09:37:33;4.60;99.90
18934;DHT22;9599;53.706;10.384;2024-02-26T09:40:04;4.60;99.90
18934;DHT22;9599;53.706;10.384;2024-02-26T09:42:34;4.70;99.90
18934;DHT22;9599;53.706;10.384;2024-02-26T09:45:06;4.80;99.90
18934;DHT22;9599;53.706;10.384;2024-02-26T09:47:38;4.80;99.90
18934;DHT22;9599;53.706;10.384;2024-02-26T09:50:09;4.90;99.90
18934;DHT22;9599;53.706;10.384;2024-02-26T09:52:41;4.90;99.90
18934;DHT22;9599;53.706;10.384;2024-02-26T09:55:10;5.00;99.90
18934;DHT22;9599;53.706;10.384;2024-02-26T09:57:42;5.10;99.90
18934;DHT22;9599;53.706;10.384;2024-02-26T10:00:15;5.10;99.90
18934;DHT22;9599;53.706;10.384;2024-02-26T10:02:47;5.00;99.90
18934;DHT22;9599;53.706;10.384;2024-02-26T10:05:17;5.00;99.90
18934;DHT22;9599;53.706;10.384;2024-02-26T10:07:45;5.00;99.90
18934;DHT22;9599;53.706;10.384;2024-02-26T10:10:14;5.00;99.90
18934;DHT22;9599;53.706;10.384;2024-02-26T10:12:42;4.90;99.90
18934;DHT22;9599;53.706;10.384;2024-02-26T10:15:11;4.80;99.90
18934;DHT22;9599;53.706;10.384;2024-02-26T10:17:39;4.80;99.90
18934;DHT22;9599;53.706;10.384;2024-02-26T10:20:16;4.90;99.90
18934;DHT22;9599;53.706;10.384;2024-02-26T10:22:46;5.00;99.90
18934;DHT22;9599;53.706;10.384;2024-02-26T10:25:14;5.20;99.90
18934;DHT22;9599;53.706;10.384;2024-02-26T10:27:42;5.30;99.90
18934;DHT22;9599;53.706;10.384;2024-02-26T10:30:17;5.30;99.90
18934;DHT22;9599;53.706;10.384;2024-02-26T10:32:47;5.40;99.90
18934;DHT22;9599;53.706;10.384;2024-02-26T10:35:20;5.40;99.90
18934;DHT22;9599;53.706;10.384;2024-02-26T10:37:50;5.40;99.90
18934;DHT22;9599;53.706;10.384;2024-02-26T10:40:20;5.40;99.90
18934;DHT22;9599;53.706;10.384;2024-02-26T10:42:48;5.40;99.90
18934;DHT22;9599;53.706;10.384;2024-02-26T10:45:16;5.50;99.90
18934;DHT22;9599;53.706;10.384;2024-02-26T10:47:46;5.40;99.90
18934;DHT22;9599;53.706;10.384;2024-02-26T10:50:14;5.40;99.90
18934;DHT22;9599;53.706;10.384;2024-02-26T10:52:44;5.30;99.90
18934;DHT22;9599;53.706;10.384;2024-02-26T10:55:16;5.30;99.90
18934;DHT22;9599;53.706;10.384;2024-02-26T10:57:47;5.20;99.90
18934;DHT22;9599;53.706;10.384;2024-02-26T11:00:18;5.30;99.90
18934;DHT22;9599;53.706;10.384;2024-02-26T11:02:46;5.40;99.90
18934;DHT22;9599;53.706;10.384;2024-02-26T11:05:15;5.50;99.90
18934;DHT22;9599;53.706;10.384;2024-02-26T11:07:47;5.60;99.90
18934;DHT22;9599;53.706;10.384;2024-02-26T11:10:15;5.70;99.90
18934;DHT22;9599;53.706;10.384;2024-02-26T11:12:44;5.80;99.90
18934;DHT22;9599;53.706;10.384;2024-02-26T11:15:15;5.70;99.90
18934;DHT22;9599;53.706;10.384;2024-02-26T11:17:46;5.70;99.90
18934;DHT22;9599;53.706;10.384;2024-02-26T11:20:14;5.70;99.90
18934;DHT22;9599;53.706;10.384;2024-02-26T11:22:43;5.60;99.90
18934;DHT22;9599;53.706;10.384;2024-02-26T11:25:12;5.60;99.90
18934;DHT22;9599;53.706;10.384;2024-02-26T11:27:44;5.50;99.90
18934;DHT22;9599;53.706;10.384;2024-02-26T11:30:16;5.50;99.90
18934;DHT22;9599;53.706;10.384;2024-02-26T11:32:46;5.50;99.90
18934;DHT22;9599;53.706;10.384;2024-02-26T11:35:15;5.60;99.90
18934;DHT22;9599;53.706;10.384;2024-02-26T11:37:55;5.60;99.90
18934;DHT22;9599;53.706;10.384;2024-02-26T11:40:25;5.50;99.90
18934;DHT22;9599;53.706;10.384;2024-02-26T11:42:54;5.50;99.90
18934;DHT22;9599;53.706;10.384;2024-02-26T11:45:47;5.50;99.90
18934;DHT22;9599;53.706;10.384;2024-02-26T11:48:21;5.60;99.90
18934;DHT22;9599;53.706;10.384;2024-02-26T11:50:52;5.70;99.90
18934;DHT22;9599;53.706;10.384;2024-02-26T11:53:26;5.80;99.90
18934;DHT22;9599;53.706;10.384;2024-02-26T11:56:20;5.70;99.90
18934;DHT22;9599;53.706;10.384;2024-02-26T11:58:53;5.70;99.90
18934;DHT22;9599;53.706;10.384;2024-02-26T12:01:52;5.70;99.90
18934;DHT22;9599;53.706;10.384;2024-02-26T12:04:22;5.90;99.90
18934;DHT22;9599;53.706;10.384;2024-02-26T12:06:55;5.90;99.90
18934;DHT22;9599;53.706;10.384;2024-02-26T12:09:34;5.90;99.90
18934;DHT22;9599;53.706;10.384;2024-02-26T12:12:06;6.00;99.90
18934;DHT22;9599;53.706;10.384;2024-02-26T12:14:38;6.10;99.90
18934;DHT22;9599;53.706;10.384;2024-02-26T12:17:07;6.10;99.90
18934;DHT22;9599;53.706;10.384;2024-02-26T12:19:36;6.10;99.90
18934;DHT22;9599;53.706;10.384;2024-02-26T12:22:13;6.10;99.90
18934;DHT22;9599;53.706;10.384;2024-02-26T12:24:42;6.20;99.90
18934;DHT22;9599;53.706;10.384;2024-02-26T12:27:11;6.10;99.90
18934;DHT22;9599;53.706;10.384;2024-02-26T12:29:40;6.10;99.90
18934;DHT22;9599;53.706;10.384;2024-02-26T12:32:08;6.10;99.90
18934;DHT22;9599;53.706;10.384;2024-02-26T12:34:38;6.10;99.90
18934;DHT22;9599;53.706;10.384;2024-02-26T12:37:07;6.20;99.90
18934;DHT22;9599;53.706;10.384;2024-02-26T12:39:37;6.30;99.90
18934;DHT22;9599;53.706;10.384;2024-02-26T12:42:05;6.40;99.90
18934;DHT22;9599;53.706;10.384;2024-02-26T12:44:35;6.60;99.90
18934;DHT22;9599;53.706;10.384;2024-02-26T12:47:04;6.70;99.90
18934;DHT22;9599;53.706;10.384;2024-02-26T12:49:32;6.90;99.90
18934;DHT22;9599;53.706;10.384;2024-02-26T12:52:00;7.10;99.90
18934;DHT22;9599;53.706;10.384;2024-02-26T12:54:29;7.10;99.90
18934;DHT22;9599;53.706;10.384;2024-02-26T12:56:59;7.10;99.90
18934;DHT22;9599;53.706;10.384;2024-02-26T12:59:28;7.10;99.90
18934;DHT22;9599;53.706;10.384;2024-02-26T13:01:58;7.20;99.90
18934;DHT22;9599;53.706;10.384;2024-02-26T13:04:29;7.40;99.90
18934;DHT22;9599;53.706;10.384;2024-02-26T13:06:58;7.30;99.90
18934;DHT22;9599;53.706;10.384;2024-02-26T13:09:32;7.30;99.90
18934;DHT22;9599;53.706;10.384;2024-02-26T13:12:04;7.40;99.90
18934;DHT22;9599;53.706;10.384;2024-02-26T13:14:33;7.50;99.90
18934;DHT22;9599;53.706;10.384;2024-02-26T13:17:03;7.50;99.90
18934;DHT22;9599;53.706;10.384;2024-02-26T13:19:33;7.40;99.90
18934;DHT22;9599;53.706;10.384;2024-02-26T13:22:06;7.40;99.90
18934;DHT22;9599;53.706;10.384;2024-02-26T13:24:34;7.40;99.90
18934;DHT22;9599;53.706;10.384;2024-02-26T13:27:03;7.40;99.90
18934;DHT22;9599;53.706;10.384;2024-02-26T13:29:33;7.40;99.90
18934;DHT22;9599;53.706;10.384;2024-02-26T13:32:06;7.40;99.90
18934;DHT22;9599;53.706;10.384;2024-02-26T13:34:35;7.40;99.90
18934;DHT22;9599;53.706;10.384;2024-02-26T13:37:06;7.40;99.90
18934;DHT22;9599;53.706;10.384;2024-02-26T13:39:38;7.40;99.90
18934;DHT22;9599;53.706;10.384;2024-02-26T13:42:08;7.50;99.90
18934;DHT22;9599;53.706;10.384;2024-02-26T13:44:40;7.60;99.90
18934;DHT22;9599;53.706;10.384;2024-02-26T13:47:10;7.80;99.90
18934;DHT22;9599;53.706;10.384;2024-02-26T13:49:38;7.80;99.90
18934;DHT22;9599;53.706;10.384;2024-02-26T13:52:06;7.80;99.90
18934;DHT22;9599;53.706;10.384;2024-02-26T13:54:34;7.80;99.90
18934;DHT22;9599;53.706;10.384;2024-02-26T13:57:07;7.70;99.90
18934;DHT22;9599;53.706;10.384;2024-02-26T13:59:36;7.90;99.90
18934;DHT22;9599;53.706;10.384;2024-02-26T14:02:04;7.90;99.90
18934;DHT22;9599;53.706;10.384;2024-02-26T14:04:34;7.80;99.90
18934;DHT22;9599;53.706;10.384;2024-02-26T14:07:02;7.70;99.90
18934;DHT22;9599;53.706;10.384;2024-02-26T14:09:31;7.70;99.90
18934;DHT22;9599;53.706;10.384;2024-02-26T14:12:15;7.70;99.90
18934;DHT22;9599;53.706;10.384;2024-02-26T14:14:48;7.70;99.90
18934;DHT22;9599;53.706;10.384;2024-02-26T14:17:16;7.60;99.90
18934;DHT22;9599;53.706;10.384;2024-02-26T14:19:46;7.80;99.90
18934;DHT22;9599;53.706;10.384;2024-02-26T14:22:16;7.80;99.90
18934;DHT22;9599;53.706;10.384;2024-02-26T14:24:44;7.70;99.90
18934;DHT22;9599;53.706;10.384;2024-02-26T14:27:14;7.50;99.90
18934;DHT22;9599;53.706;10.384;2024-02-26T14:29:45;7.50;99.90
18934;DHT22;9599;53.706;10.384;2024-02-26T14:32:14;7.40;99.90
18934;DHT22;9599;53.706;10.384;2024-02-26T14:34:44;7.40;99.90
18934;DHT22;9599;53.706;10.384;2024-02-26T14:37:15;7.40;99.90
18934;DHT22;9599;53.706;10.384;2024-02-26T14:39:45;7.30;99.90
18934;DHT22;9599;53.706;10.384;2024-02-26T14:42:15;7.30;99.90
18934;DHT22;9599;53.706;10.384;2024-02-26T14:44:45;7.20;99.90
18934;DHT22;9599;53.706;10.384;2024-02-26T14:47:14;7.20;99.90
18934;DHT22;9599;53.706;10.384;2024-02-26T14:49:43;7.20;99.90
18934;DHT22;9599;53.706;10.384;2024-02-26T14:52:14;7.20;99.90
18934;DHT22;9599;53.706;10.384;2024-02-26T15:07:14;7.20;99.90
18934;DHT22;9599;53.706;10.384;2024-02-26T15:09:43;7.20;99.90
18934;DHT22;9599;53.706;10.384;2024-02-26T15:12:11;7.10;99.90
18934;DHT22;9599;53.706;10.384;2024-02-26T15:14:39;7.10;99.90
18934;DHT22;9599;53.706;10.384;2024-02-26T15:17:07;7.00;99.90
18934;DHT22;9599;53.706;10.384;2024-02-26T15:19:39;6.90;99.90
18934;DHT22;9599;53.706;10.384;2024-02-26T15:22:08;6.80;99.90
18934;DHT22;9599;53.706;10.384;2024-02-26T15:24:37;6.70;99.90
18934;DHT22;9599;53.706;10.384;2024-02-26T15:27:05;6.70;99.90
18934;DHT22;9599;53.706;10.384;2024-02-26T15:29:33;6.60;99.90
18934;DHT22;9599;53.706;10.384;2024-02-26T15:32:03;6.60;99.90
18934;DHT22;9599;53.706;10.384;2024-02-26T15:34:31;6.60;99.90
18934;DHT22;9599;53.706;10.384;2024-02-26T15:36:59;6.60;99.90
18934;DHT22;9599;53.706;10.384;2024-02-26T15:39:27;6.60;99.90
18934;DHT22;9599;53.706;10.384;2024-02-26T15:41:56;6.60;99.90
18934;DHT22;9599;53.706;10.384;2024-02-26T15:44:29;6.60;99.90
18934;DHT22;9599;53.706;10.384;2024-02-26T15:46:57;6.50;99.90
18934;DHT22;9599;53.706;10.384;2024-02-26T15:49:26;6.50;99.90
18934;DHT22;9599;53.706;10.384;2024-02-26T15:51:54;6.40;99.90
18934;DHT22;9599;53.706;10.384;2024-02-26T15:54:22;6.40;99.90
18934;DHT22;9599;53.706;10.384;2024-02-26T15:56:50;6.40;99.90
18934;DHT22;9599;53.706;10.384;2024-02-26T15:59:19;6.40;99.90
18934;DHT22;9599;53.706;10.384;2024-02-26T16:01:48;6.40;99.90
18934;DHT22;9599;53.706;10.384;2024-02-26T16:04:16;6.40;99.90
18934;DHT22;9599;53.706;10.384;2024-02-26T16:06:45;6.30;99.90
18934;DHT22;9599;53.706;10.384;2024-02-26T16:09:15;6.30;99.90
18934;DHT22;9599;53.706;10.384;2024-02-26T16:11:43;6.30;99.90